sensor_id;sensor_type;location;lat;lon;timestamp;pressure;altitude;pressure_sealevel;temperature;humidity
61761;BME280;47664;51.660;-0.100;2023-03-01T00:01:35;102598.34;;;5.06;56.90
61761;BME280;47664;51.660;-0.100;2023-03-01T00:04:07;102598.57;;;5.36;56.06
61761;BME280;47664;51.660;-0.100;2023-03-01T00:06:39;102596.70;;;5.38;55.90
61761;BME280;47664;51.660;-0.100;2023-03-01T00:09:14;102602.07;;;5.30;55.85
61761;BME280;47664;51.660;-0.100;2023-03-01T00:11:47;102602.10;;;5.44;55.59
61761;BME280;47664;51.660;-0.100;2023-03-01T00:14:19;102602.70;;;5.69;55.46
61761;BME280;47664;51.660;-0.100;2023-03-01T00:16:52;102602.98;;;5.39;56.01
61761;BME280;47664;51.660;-0.100;2023-03-01T00:19:25;102601.89;;;5.36;56.54
61761;BME280;47664;51.660;-0.100;2023-03-01T00:21:57;102606.04;;;5.58;55.76
61761;BME280;47664;51.660;-0.100;2023-03-01T00:24:29;102608.38;;;5.67;55.38
61761;BME280;47664;51.660;-0.100;2023-03-01T00:27:02;102609.40;;;5.48;55.08
61761;BME280;47664;51.660;-0.100;2023-03-01T00:29:34;102610.51;;;5.85;55.19
61761;BME280;47664;51.660;-0.100;2023-03-01T00:32:06;102611.75;;;5.57;55.43
61761;BME280;47664;51.660;-0.100;2023-03-01T00:34:38;102614.13;;;5.49;55.65
61761;BME280;47664;51.660;-0.100;2023-03-01T00:37:11;102612.66;;;5.76;55.56
61761;BME280;47664;51.660;-0.100;2023-03-01T00:39:43;102617.03;;;5.77;54.98
61761;BME280;47664;51.660;-0.100;2023-03-01T00:42:15;102613.95;;;5.65;55.08
61761;BME280;47664;51.660;-0.100;2023-03-01T00:44:47;102610.38;;;5.91;55.06
61761;BME280;47664;51.660;-0.100;2023-03-01T00:47:19;102606.06;;;5.89;55.15
61761;BME280;47664;51.660;-0.100;2023-03-01T00:49:51;102601.45;;;5.51;55.20
61761;BME280;47664;51.660;-0.100;2023-03-01T00:52:23;102601.62;;;5.58;55.27
61761;BME280;47664;51.660;-0.100;2023-03-01T00:54:57;102593.58;;;5.76;54.93
61761;BME280;47664;51.660;-0.100;2023-03-01T00:57:30;102593.81;;;5.61;55.00
61761;BME280;47664;51.660;-0.100;2023-03-01T01:00:02;102588.24;;;5.61;55.14
61761;BME280;47664;51.660;-0.100;2023-03-01T01:02:35;102590.56;;;5.66;55.13
61761;BME280;47664;51.660;-0.100;2023-03-01T01:05:08;102588.00;;;5.25;55.26
61761;BME280;47664;51.660;-0.100;2023-03-01T01:07:40;102584.42;;;5.49;55.62
61761;BME280;47664;51.660;-0.100;2023-03-01T01:10:13;102587.60;;;5.45;55.56
61761;BME280;47664;51.660;-0.100;2023-03-01T01:12:45;102588.12;;;5.20;56.11
61761;BME280;47664;51.660;-0.100;2023-03-01T01:15:18;102588.21;;;5.60;55.88
61761;BME280;47664;51.660;-0.100;2023-03-01T01:17:50;102587.99;;;5.23;56.12
61761;BME280;47664;51.660;-0.100;2023-03-01T01:20:22;102586.15;;;5.43;55.81
61761;BME280;47664;51.660;-0.100;2023-03-01T01:22:55;102585.36;;;5.19;56.19
61761;BME280;47664;51.660;-0.100;2023-03-01T01:25:27;102585.67;;;5.43;56.33
61761;BME280;47664;51.660;-0.100;2023-03-01T01:27:59;102585.23;;;5.50;56.16
61761;BME280;47664;51.660;-0.100;2023-03-01T01:30:31;102583.49;;;5.39;56.15
61761;BME280;47664;51.660;-0.100;2023-03-01T01:33:03;102582.63;;;5.20;56.55
61761;BME280;47664;51.660;-0.100;2023-03-01T01:35:35;102584.73;;;5.55;56.09
61761;BME280;47664;51.660;-0.100;2023-03-01T01:38:08;102583.07;;;5.48;55.86
61761;BME280;47664;51.660;-0.100;2023-03-01T01:40:43;102585.64;;;5.41;55.88
61761;BME280;47664;51.660;-0.100;2023-03-01T01:43:16;102585.02;;;5.66;55.17
61761;BME280;47664;51.660;-0.100;2023-03-01T01:45:50;102579.70;;;5.43;55.85
61761;BME280;47664;51.660;-0.100;2023-03-01T01:48:24;102576.47;;;5.47;55.84
61761;BME280;47664;51.660;-0.100;2023-03-01T01:51:02;102573.65;;;5.27;55.89
61761;BME280;47664;51.660;-0.100;2023-03-01T01:53:34;102569.70;;;5.36;56.29
61761;BME280;47664;51.660;-0.100;2023-03-01T01:56:08;102565.78;;;5.46;56.10
61761;BME280;47664;51.660;-0.100;2023-03-01T01:58:43;102562.99;;;5.47;56.10
61761;BME280;47664;51.660;-0.100;2023-03-01T02:01:17;102559.24;;;5.47;56.01
61761;BME280;47664;51.660;-0.100;2023-03-01T02:03:47;102553.01;;;5.34;56.00
61761;BME280;47664;51.660;-0.100;2023-03-01T02:06:19;102547.64;;;5.69;55.62
61761;BME280;47664;51.660;-0.100;2023-03-01T02:08:55;102549.73;;;5.57;55.79
61761;BME280;47664;51.660;-0.100;2023-03-01T02:11:30;102547.33;;;5.19;56.58
61761;BME280;47664;51.660;-0.100;2023-03-01T02:14:03;102543.57;;;5.32;56.40
61761;BME280;47664;51.660;-0.100;2023-03-01T02:16:35;102541.22;;;5.28;56.49
61761;BME280;47664;51.660;-0.100;2023-03-01T02:19:08;102536.32;;;5.49;56.18
61761;BME280;47664;51.660;-0.100;2023-03-01T02:21:50;102536.22;;;5.54;55.93
61761;BME280;47664;51.660;-0.100;2023-03-01T02:24:28;102533.23;;;5.37;56.11
61761;BME280;47664;51.660;-0.100;2023-03-01T02:27:05;102528.67;;;5.80;56.36
61761;BME280;47664;51.660;-0.100;2023-03-01T02:29:38;102530.09;;;5.35;56.88
61761;BME280;47664;51.660;-0.100;2023-03-01T02:32:10;102528.93;;;5.15;57.52
61761;BME280;47664;51.660;-0.100;2023-03-01T02:34:43;102528.40;;;5.15;58.05
61761;BME280;47664;51.660;-0.100;2023-03-01T02:37:17;102526.49;;;4.90;58.05
61761;BME280;47664;51.660;-0.100;2023-03-01T02:39:48;102526.67;;;5.32;57.98
61761;BME280;47664;51.660;-0.100;2023-03-01T02:42:22;102521.28;;;5.23;58.16
61761;BME280;47664;51.660;-0.100;2023-03-01T02:44:55;102516.30;;;4.88;58.95
61761;BME280;47664;51.660;-0.100;2023-03-01T02:47:28;102511.63;;;5.15;58.70
61761;BME280;47664;51.660;-0.100;2023-03-01T02:50:00;102511.57;;;4.28;58.78
61761;BME280;47664;51.660;-0.100;2023-03-01T02:52:39;102506.41;;;5.54;58.15
61761;BME280;47664;51.660;-0.100;2023-03-01T02:55:14;102503.95;;;5.11;58.15
61761;BME280;47664;51.660;-0.100;2023-03-01T02:57:49;102501.40;;;5.48;58.34
61761;BME280;47664;51.660;-0.100;2023-03-01T03:00:24;102502.55;;;5.07;58.59
61761;BME280;47664;51.660;-0.100;2023-03-01T03:02:59;102499.47;;;5.12;58.75
61761;BME280;47664;51.660;-0.100;2023-03-01T03:05:32;102492.45;;;5.51;58.57
61761;BME280;47664;51.660;-0.100;2023-03-01T03:08:05;102488.64;;;5.19;58.26
61761;BME280;47664;51.660;-0.100;2023-03-01T03:10:39;102488.25;;;5.54;58.51
61761;BME280;47664;51.660;-0.100;2023-03-01T03:13:12;102490.55;;;5.40;58.65
61761;BME280;47664;51.660;-0.100;2023-03-01T03:15:45;102491.42;;;5.26;59.10
61761;BME280;47664;51.660;-0.100;2023-03-01T03:18:19;102494.82;;;5.22;59.20
61761;BME280;47664;51.660;-0.100;2023-03-01T03:20:53;102490.70;;;4.32;60.04
61761;BME280;47664;51.660;-0.100;2023-03-01T03:23:26;102488.67;;;4.75;60.63
61761;BME280;47664;51.660;-0.100;2023-03-01T03:25:58;102492.07;;;4.81;60.76
61761;BME280;47664;51.660;-0.100;2023-03-01T03:28:30;102486.51;;;5.01;60.63
61761;BME280;47664;51.660;-0.100;2023-03-01T03:31:03;102486.78;;;4.81;60.69
61761;BME280;47664;51.660;-0.100;2023-03-01T03:33:37;102484.40;;;5.06;60.38
61761;BME280;47664;51.660;-0.100;2023-03-01T03:36:10;102480.30;;;4.59;61.68
61761;BME280;47664;51.660;-0.100;2023-03-01T03:38:47;102480.14;;;4.87;61.50
61761;BME280;47664;51.660;-0.100;2023-03-01T03:41:19;102474.25;;;4.65;61.13
61761;BME280;47664;51.660;-0.100;2023-03-01T03:43:51;102469.83;;;4.97;60.58
61761;BME280;47664;51.660;-0.100;2023-03-01T03:46:23;102466.71;;;4.99;60.63
61761;BME280;47664;51.660;-0.100;2023-03-01T03:48:56;102464.16;;;4.50;60.76
61761;BME280;47664;51.660;-0.100;2023-03-01T03:51:28;102460.17;;;5.12;60.57
61761;BME280;47664;51.660;-0.100;2023-03-01T03:54:00;102458.83;;;5.46;60.10
61761;BME280;47664;51.660;-0.100;2023-03-01T03:56:32;102458.73;;;5.22;60.58
61761;BME280;47664;51.660;-0.100;2023-03-01T03:59:04;102456.64;;;5.24;60.84
61761;BME280;47664;51.660;-0.100;2023-03-01T04:01:37;102453.91;;;5.18;60.63
61761;BME280;47664;51.660;-0.100;2023-03-01T04:04:09;102446.89;;;5.16;60.64
61761;BME280;47664;51.660;-0.100;2023-03-01T04:06:41;102444.77;;;5.05;61.29
61761;BME280;47664;51.660;-0.100;2023-03-01T04:09:13;102440.64;;;4.75;61.64
61761;BME280;47664;51.660;-0.100;2023-03-01T04:11:46;102436.55;;;5.00;61.15
61761;BME280;47664;51.660;-0.100;2023-03-01T04:14:18;102438.09;;;5.12;60.89
61761;BME280;47664;51.660;-0.100;2023-03-01T04:16:50;102434.44;;;4.92;60.78
61761;BME280;47664;51.660;-0.100;2023-03-01T04:19:22;102435.09;;;4.71;60.90
61761;BME280;47664;51.660;-0.100;2023-03-01T04:21:54;102433.86;;;5.06;60.98
61761;BME280;47664;51.660;-0.100;2023-03-01T04:24:27;102431.80;;;5.33;60.81
61761;BME280;47664;51.660;-0.100;2023-03-01T04:26:59;102432.60;;;5.28;61.01
61761;BME280;47664;51.660;-0.100;2023-03-01T04:29:31;102430.74;;;5.22;60.77
61761;BME280;47664;51.660;-0.100;2023-03-01T04:32:04;102427.44;;;4.82;60.84
61761;BME280;47664;51.660;-0.100;2023-03-01T04:34:36;102425.71;;;4.97;60.47
61761;BME280;47664;51.660;-0.100;2023-03-01T04:37:08;102425.09;;;4.71;60.28
61761;BME280;47664;51.660;-0.100;2023-03-01T04:39:40;102426.35;;;5.19;59.94
61761;BME280;47664;51.660;-0.100;2023-03-01T04:42:12;102425.17;;;5.56;59.54
61761;BME280;47664;51.660;-0.100;2023-03-01T04:44:45;102426.22;;;5.56;59.58
61761;BME280;47664;51.660;-0.100;2023-03-01T04:47:18;102425.26;;;5.29;59.61
61761;BME280;47664;51.660;-0.100;2023-03-01T04:49:49;102424.45;;;5.36;59.66
61761;BME280;47664;51.660;-0.100;2023-03-01T04:52:22;102422.80;;;5.33;59.46
61761;BME280;47664;51.660;-0.100;2023-03-01T04:54:54;102419.31;;;5.26;59.65
61761;BME280;47664;51.660;-0.100;2023-03-01T04:57:26;102414.55;;;5.47;59.92
61761;BME280;47664;51.660;-0.100;2023-03-01T04:59:58;102412.67;;;5.22;59.96
61761;BME280;47664;51.660;-0.100;2023-03-01T05:02:30;102412.15;;;5.14;60.00
61761;BME280;47664;51.660;-0.100;2023-03-01T05:05:03;102412.26;;;5.35;59.56
61761;BME280;47664;51.660;-0.100;2023-03-01T05:07:35;102411.49;;;5.15;59.39
61761;BME280;47664;51.660;-0.100;2023-03-01T05:10:08;102409.77;;;5.26;59.60
61761;BME280;47664;51.660;-0.100;2023-03-01T05:12:41;102411.93;;;5.04;59.45
61761;BME280;47664;51.660;-0.100;2023-03-01T05:15:14;102412.36;;;5.28;59.38
61761;BME280;47664;51.660;-0.100;2023-03-01T05:17:46;102413.10;;;5.06;59.59
61761;BME280;47664;51.660;-0.100;2023-03-01T05:20:18;102410.52;;;4.75;60.05
61761;BME280;47664;51.660;-0.100;2023-03-01T05:22:51;102410.22;;;5.05;59.66
61761;BME280;47664;51.660;-0.100;2023-03-01T05:25:23;102407.70;;;5.07;59.91
61761;BME280;47664;51.660;-0.100;2023-03-01T05:27:55;102402.88;;;4.83;59.92
61761;BME280;47664;51.660;-0.100;2023-03-01T05:30:27;102399.07;;;5.01;59.46
61761;BME280;47664;51.660;-0.100;2023-03-01T05:33:00;102396.54;;;5.39;58.86
61761;BME280;47664;51.660;-0.100;2023-03-01T05:35:33;102389.25;;;5.28;59.25
61761;BME280;47664;51.660;-0.100;2023-03-01T05:38:05;102384.52;;;4.79;59.30
61761;BME280;47664;51.660;-0.100;2023-03-01T05:40:38;102382.94;;;4.86;59.19
61761;BME280;47664;51.660;-0.100;2023-03-01T05:43:10;102382.42;;;5.16;59.04
61761;BME280;47664;51.660;-0.100;2023-03-01T05:45:44;102382.70;;;5.34;59.12
61761;BME280;47664;51.660;-0.100;2023-03-01T05:48:16;102386.79;;;5.43;58.69
61761;BME280;47664;51.660;-0.100;2023-03-01T05:50:49;102383.54;;;5.47;58.54
61761;BME280;47664;51.660;-0.100;2023-03-01T05:53:22;102384.57;;;5.25;58.42
61761;BME280;47664;51.660;-0.100;2023-03-01T05:55:55;102385.17;;;4.92;58.48
61761;BME280;47664;51.660;-0.100;2023-03-01T05:58:27;102385.50;;;5.26;58.01
61761;BME280;47664;51.660;-0.100;2023-03-01T06:00:59;102384.48;;;4.87;57.85
61761;BME280;47664;51.660;-0.100;2023-03-01T06:03:31;102380.77;;;5.61;57.88
61761;BME280;47664;51.660;-0.100;2023-03-01T06:06:04;102379.56;;;5.16;57.89
61761;BME280;47664;51.660;-0.100;2023-03-01T06:08:36;102383.00;;;5.35;57.50
61761;BME280;47664;51.660;-0.100;2023-03-01T06:11:08;102381.96;;;5.53;57.95
61761;BME280;47664;51.660;-0.100;2023-03-01T06:13:41;102385.48;;;5.11;57.82
61761;BME280;47664;51.660;-0.100;2023-03-01T06:16:13;102387.43;;;5.44;57.66
61761;BME280;47664;51.660;-0.100;2023-03-01T06:18:46;102387.13;;;5.67;57.98
61761;BME280;47664;51.660;-0.100;2023-03-01T06:21:18;102385.86;;;5.31;58.37
61761;BME280;47664;51.660;-0.100;2023-03-01T06:23:50;102391.46;;;5.64;58.19
61761;BME280;47664;51.660;-0.100;2023-03-01T06:26:22;102393.86;;;5.22;58.19
61761;BME280;47664;51.660;-0.100;2023-03-01T06:28:55;102392.15;;;4.83;58.45
61761;BME280;47664;51.660;-0.100;2023-03-01T06:31:27;102395.94;;;5.00;58.31
61761;BME280;47664;51.660;-0.100;2023-03-01T06:33:59;102397.49;;;5.23;58.35
61761;BME280;47664;51.660;-0.100;2023-03-01T06:36:31;102400.36;;;5.25;58.13
61761;BME280;47664;51.660;-0.100;2023-03-01T06:39:03;102404.39;;;5.33;58.19
61761;BME280;47664;51.660;-0.100;2023-03-01T06:41:35;102405.14;;;4.98;58.29
61761;BME280;47664;51.660;-0.100;2023-03-01T06:44:08;102404.32;;;5.04;58.14
61761;BME280;47664;51.660;-0.100;2023-03-01T06:46:40;102407.96;;;5.35;57.44
61761;BME280;47664;51.660;-0.100;2023-03-01T06:49:12;102406.96;;;4.73;58.30
61761;BME280;47664;51.660;-0.100;2023-03-01T06:51:44;102410.59;;;5.34;57.65
61761;BME280;47664;51.660;-0.100;2023-03-01T06:54:16;102408.66;;;4.99;58.69
61761;BME280;47664;51.660;-0.100;2023-03-01T06:56:51;102409.47;;;4.65;58.73
61761;BME280;47664;51.660;-0.100;2023-03-01T06:59:24;102407.29;;;4.73;58.97
61761;BME280;47664;51.660;-0.100;2023-03-01T07:01:56;102408.89;;;4.37;58.88
61761;BME280;47664;51.660;-0.100;2023-03-01T07:04:28;102410.40;;;5.19;58.89
61761;BME280;47664;51.660;-0.100;2023-03-01T07:07:00;102409.66;;;4.52;58.78
61761;BME280;47664;51.660;-0.100;2023-03-01T07:09:32;102405.32;;;4.85;58.45
61761;BME280;47664;51.660;-0.100;2023-03-01T07:12:05;102405.57;;;5.25;58.28
61761;BME280;47664;51.660;-0.100;2023-03-01T07:14:37;102406.64;;;5.31;58.27
61761;BME280;47664;51.660;-0.100;2023-03-01T07:17:09;102408.18;;;4.53;58.41
61761;BME280;47664;51.660;-0.100;2023-03-01T07:19:41;102409.49;;;5.15;58.28
61761;BME280;47664;51.660;-0.100;2023-03-01T07:22:14;102413.86;;;4.82;57.99
61761;BME280;47664;51.660;-0.100;2023-03-01T07:24:46;102415.65;;;5.18;57.74
61761;BME280;47664;51.660;-0.100;2023-03-01T07:27:18;102421.15;;;4.80;58.63
61761;BME280;47664;51.660;-0.100;2023-03-01T07:29:50;102420.08;;;5.13;58.17
61761;BME280;47664;51.660;-0.100;2023-03-01T07:32:23;102420.35;;;4.88;58.23
61761;BME280;47664;51.660;-0.100;2023-03-01T07:34:56;102420.68;;;5.09;58.02
61761;BME280;47664;51.660;-0.100;2023-03-01T07:37:28;102424.22;;;5.16;58.00
61761;BME280;47664;51.660;-0.100;2023-03-01T07:40:00;102421.33;;;4.21;58.65
61761;BME280;47664;51.660;-0.100;2023-03-01T07:42:32;102422.65;;;5.07;58.22
61761;BME280;47664;51.660;-0.100;2023-03-01T07:45:05;102423.74;;;4.60;58.41
61761;BME280;47664;51.660;-0.100;2023-03-01T07:47:37;102417.92;;;5.12;58.27
61761;BME280;47664;51.660;-0.100;2023-03-01T07:50:10;102417.42;;;5.12;57.93
61761;BME280;47664;51.660;-0.100;2023-03-01T07:52:44;102413.74;;;5.83;57.24
61761;BME280;47664;51.660;-0.100;2023-03-01T07:55:16;102412.73;;;5.72;56.79
61761;BME280;47664;51.660;-0.100;2023-03-01T07:57:49;102412.32;;;5.42;57.65
61761;BME280;47664;51.660;-0.100;2023-03-01T08:00:21;102412.27;;;5.22;57.66
61761;BME280;47664;51.660;-0.100;2023-03-01T08:02:54;102410.62;;;5.46;57.77
61761;BME280;47664;51.660;-0.100;2023-03-01T08:05:26;102411.57;;;5.00;58.20
61761;BME280;47664;51.660;-0.100;2023-03-01T08:07:58;102412.41;;;4.90;58.55
61761;BME280;47664;51.660;-0.100;2023-03-01T08:10:31;102411.58;;;5.10;58.28
61761;BME280;47664;51.660;-0.100;2023-03-01T08:13:03;102408.54;;;4.40;59.12
61761;BME280;47664;51.660;-0.100;2023-03-01T08:15:35;102406.66;;;4.75;59.83
61761;BME280;47664;51.660;-0.100;2023-03-01T08:18:07;102402.80;;;4.67;60.03
61761;BME280;47664;51.660;-0.100;2023-03-01T08:20:39;102398.42;;;4.92;59.28
61761;BME280;47664;51.660;-0.100;2023-03-01T08:23:12;102396.58;;;4.84;59.56
61761;BME280;47664;51.660;-0.100;2023-03-01T08:25:44;102397.07;;;5.34;59.20
61761;BME280;47664;51.660;-0.100;2023-03-01T08:28:16;102397.70;;;5.19;59.06
61761;BME280;47664;51.660;-0.100;2023-03-01T08:30:49;102394.78;;;5.16;58.61
61761;BME280;47664;51.660;-0.100;2023-03-01T08:33:21;102386.31;;;5.48;58.24
61761;BME280;47664;51.660;-0.100;2023-03-01T08:36:02;102382.81;;;4.73;59.22
61761;BME280;47664;51.660;-0.100;2023-03-01T08:38:34;102383.84;;;4.86;59.95
61761;BME280;47664;51.660;-0.100;2023-03-01T08:41:07;102382.74;;;5.31;59.98
61761;BME280;47664;51.660;-0.100;2023-03-01T08:43:39;102378.97;;;5.26;58.85
61761;BME280;47664;51.660;-0.100;2023-03-01T08:46:12;102382.91;;;5.07;58.87
61761;BME280;47664;51.660;-0.100;2023-03-01T08:48:44;102382.11;;;5.60;58.36
61761;BME280;47664;51.660;-0.100;2023-03-01T08:51:19;102379.64;;;5.57;58.36
61761;BME280;47664;51.660;-0.100;2023-03-01T08:53:51;102381.47;;;5.46;58.29
61761;BME280;47664;51.660;-0.100;2023-03-01T08:56:25;102376.13;;;5.20;58.76
61761;BME280;47664;51.660;-0.100;2023-03-01T08:58:58;102377.99;;;5.70;58.85
61761;BME280;47664;51.660;-0.100;2023-03-01T09:01:30;102384.14;;;5.80;58.82
61761;BME280;47664;51.660;-0.100;2023-03-01T09:04:02;102388.46;;;5.90;58.69
61761;BME280;47664;51.660;-0.100;2023-03-01T09:06:35;102388.74;;;5.77;58.66
61761;BME280;47664;51.660;-0.100;2023-03-01T09:09:11;102384.25;;;5.47;59.38
61761;BME280;47664;51.660;-0.100;2023-03-01T09:11:44;102388.80;;;5.73;59.19
61761;BME280;47664;51.660;-0.100;2023-03-01T09:14:17;102394.03;;;5.56;58.96
61761;BME280;47664;51.660;-0.100;2023-03-01T09:16:50;102389.62;;;5.78;58.96
61761;BME280;47664;51.660;-0.100;2023-03-01T09:19:22;102386.44;;;5.39;60.32
61761;BME280;47664;51.660;-0.100;2023-03-01T09:21:54;102384.95;;;5.70;60.92
61761;BME280;47664;51.660;-0.100;2023-03-01T09:24:28;102383.56;;;5.73;61.44
61761;BME280;47664;51.660;-0.100;2023-03-01T09:27:01;102375.76;;;5.67;61.57
61761;BME280;47664;51.660;-0.100;2023-03-01T09:29:33;102375.50;;;5.24;61.16
61761;BME280;47664;51.660;-0.100;2023-03-01T09:32:05;102373.81;;;5.43;61.26
61761;BME280;47664;51.660;-0.100;2023-03-01T09:34:37;102374.78;;;5.61;60.92
61761;BME280;47664;51.660;-0.100;2023-03-01T09:37:09;102372.14;;;5.32;61.69
61761;BME280;47664;51.660;-0.100;2023-03-01T09:39:42;102367.79;;;5.39;61.41
61761;BME280;47664;51.660;-0.100;2023-03-01T09:42:17;102366.08;;;5.30;61.91
61761;BME280;47664;51.660;-0.100;2023-03-01T09:44:52;102359.95;;;5.27;61.23
61761;BME280;47664;51.660;-0.100;2023-03-01T09:47:25;102355.46;;;5.63;61.01
61761;BME280;47664;51.660;-0.100;2023-03-01T09:50:00;102354.37;;;5.89;60.68
61761;BME280;47664;51.660;-0.100;2023-03-01T09:52:34;102346.99;;;5.80;60.84
61761;BME280;47664;51.660;-0.100;2023-03-01T09:55:09;102344.98;;;5.30;60.59
61761;BME280;47664;51.660;-0.100;2023-03-01T09:57:43;102348.55;;;5.46;61.36
61761;BME280;47664;51.660;-0.100;2023-03-01T10:00:21;102350.83;;;5.12;60.90
61761;BME280;47664;51.660;-0.100;2023-03-01T10:02:58;102355.71;;;5.33;61.66
61761;BME280;47664;51.660;-0.100;2023-03-01T10:05:36;102349.30;;;5.67;60.30
61761;BME280;47664;51.660;-0.100;2023-03-01T10:08:42;102346.22;;;5.49;59.48
61761;BME280;47664;51.660;-0.100;2023-03-01T10:11:20;102345.88;;;4.96;60.08
61761;BME280;47664;51.660;-0.100;2023-03-01T10:13:54;102339.99;;;5.23;60.28
61761;BME280;47664;51.660;-0.100;2023-03-01T10:16:26;102339.08;;;5.74;58.80
61761;BME280;47664;51.660;-0.100;2023-03-01T10:18:59;102334.91;;;6.29;59.58
61761;BME280;47664;51.660;-0.100;2023-03-01T10:21:32;102337.88;;;5.42;60.09
61761;BME280;47664;51.660;-0.100;2023-03-01T10:24:10;102335.90;;;6.06;58.53
61761;BME280;47664;51.660;-0.100;2023-03-01T10:26:46;102340.03;;;5.31;59.36
61761;BME280;47664;51.660;-0.100;2023-03-01T10:29:20;102342.68;;;5.49;58.53
61761;BME280;47664;51.660;-0.100;2023-03-01T10:31:56;102341.37;;;5.48;57.61
61761;BME280;47664;51.660;-0.100;2023-03-01T10:34:30;102335.72;;;5.60;57.47
61761;BME280;47664;51.660;-0.100;2023-03-01T10:37:07;102331.68;;;5.16;57.19
61761;BME280;47664;51.660;-0.100;2023-03-01T10:39:54;102332.24;;;6.02;56.30
61761;BME280;47664;51.660;-0.100;2023-03-01T10:42:27;102323.93;;;5.65;56.34
61761;BME280;47664;51.660;-0.100;2023-03-01T10:45:14;102324.57;;;5.38;57.43
61761;BME280;47664;51.660;-0.100;2023-03-01T10:47:47;102320.85;;;6.01;57.93
61761;BME280;47664;51.660;-0.100;2023-03-01T10:50:34;102315.21;;;5.55;59.04
61761;BME280;47664;51.660;-0.100;2023-03-01T10:53:18;102317.54;;;5.25;59.60
61761;BME280;47664;51.660;-0.100;2023-03-01T10:56:00;102313.12;;;5.80;59.61
61761;BME280;47664;51.660;-0.100;2023-03-01T10:58:34;102309.69;;;5.91;58.59
61761;BME280;47664;51.660;-0.100;2023-03-01T11:01:24;102306.17;;;6.01;58.72
61761;BME280;47664;51.660;-0.100;2023-03-01T11:04:10;102305.16;;;6.10;58.17
61761;BME280;47664;51.660;-0.100;2023-03-01T11:06:43;102299.73;;;6.45;57.47
61761;BME280;47664;51.660;-0.100;2023-03-01T11:09:15;102297.30;;;6.42;57.16
61761;BME280;47664;51.660;-0.100;2023-03-01T11:11:50;102293.07;;;6.19;57.64
61761;BME280;47664;51.660;-0.100;2023-03-01T11:14:24;102291.29;;;6.30;56.71
61761;BME280;47664;51.660;-0.100;2023-03-01T11:16:59;102287.29;;;6.07;57.37
61761;BME280;47664;51.660;-0.100;2023-03-01T11:19:32;102288.14;;;6.03;57.08
61761;BME280;47664;51.660;-0.100;2023-03-01T11:22:07;102282.89;;;5.74;57.35
61761;BME280;47664;51.660;-0.100;2023-03-01T11:24:46;102273.67;;;5.55;57.72
61761;BME280;47664;51.660;-0.100;2023-03-01T11:27:19;102271.53;;;5.96;57.89
61761;BME280;47664;51.660;-0.100;2023-03-01T11:29:52;102262.18;;;5.64;58.36
61761;BME280;47664;51.660;-0.100;2023-03-01T11:32:24;102258.25;;;5.73;57.59
61761;BME280;47664;51.660;-0.100;2023-03-01T11:35:02;102255.67;;;4.81;57.87
61761;BME280;47664;51.660;-0.100;2023-03-01T11:37:37;102256.55;;;4.63;56.90
61761;BME280;47664;51.660;-0.100;2023-03-01T11:40:46;102248.61;;;6.96;54.55
61761;BME280;47664;51.660;-0.100;2023-03-01T11:43:20;102242.81;;;6.61;55.11
61761;BME280;47664;51.660;-0.100;2023-03-01T11:46:08;102237.42;;;6.59;54.61
61761;BME280;47664;51.660;-0.100;2023-03-01T11:48:54;102235.77;;;5.95;55.57
61761;BME280;47664;51.660;-0.100;2023-03-01T11:51:38;102226.98;;;5.97;56.46
61761;BME280;47664;51.660;-0.100;2023-03-01T11:54:55;102223.50;;;5.53;56.60
61761;BME280;47664;51.660;-0.100;2023-03-01T11:57:41;102218.04;;;6.05;56.16
61761;BME280;47664;51.660;-0.100;2023-03-01T12:00:23;102218.14;;;6.21;55.55
61761;BME280;47664;51.660;-0.100;2023-03-01T12:03:17;102209.29;;;6.15;55.00
61761;BME280;47664;51.660;-0.100;2023-03-01T12:06:02;102211.33;;;6.66;54.76
61761;BME280;47664;51.660;-0.100;2023-03-01T12:08:36;102210.78;;;6.82;54.25
61761;BME280;47664;51.660;-0.100;2023-03-01T12:11:16;102202.09;;;5.77;54.55
61761;BME280;47664;51.660;-0.100;2023-03-01T12:14:08;102193.52;;;6.53;53.79
61761;BME280;47664;51.660;-0.100;2023-03-01T12:17:02;102188.86;;;6.70;52.93
61761;BME280;47664;51.660;-0.100;2023-03-01T12:19:54;102186.56;;;6.60;53.28
61761;BME280;47664;51.660;-0.100;2023-03-01T12:22:30;102183.07;;;6.43;54.17
61761;BME280;47664;51.660;-0.100;2023-03-01T12:25:14;102180.39;;;6.37;55.14
61761;BME280;47664;51.660;-0.100;2023-03-01T12:28:00;102177.14;;;6.42;54.61
61761;BME280;47664;51.660;-0.100;2023-03-01T12:30:45;102168.33;;;6.78;54.34
61761;BME280;47664;51.660;-0.100;2023-03-01T12:33:22;102167.61;;;6.87;53.89
61761;BME280;47664;51.660;-0.100;2023-03-01T12:36:10;102162.95;;;6.72;54.27
61761;BME280;47664;51.660;-0.100;2023-03-01T12:38:49;102155.86;;;6.88;53.03
61761;BME280;47664;51.660;-0.100;2023-03-01T12:41:37;102153.88;;;6.54;53.52
61761;BME280;47664;51.660;-0.100;2023-03-01T12:44:14;102148.23;;;6.80;52.04
61761;BME280;47664;51.660;-0.100;2023-03-01T12:46:56;102146.63;;;6.60;51.76
61761;BME280;47664;51.660;-0.100;2023-03-01T12:49:38;102142.00;;;6.35;52.79
61761;BME280;47664;51.660;-0.100;2023-03-01T12:52:11;102141.39;;;5.63;53.65
61761;BME280;47664;51.660;-0.100;2023-03-01T12:54:46;102137.34;;;5.92;53.44
61761;BME280;47664;51.660;-0.100;2023-03-01T12:57:25;102135.43;;;6.31;53.44
61761;BME280;47664;51.660;-0.100;2023-03-01T13:00:03;102132.59;;;6.56;52.47
61761;BME280;47664;51.660;-0.100;2023-03-01T13:02:36;102123.08;;;6.54;52.78
61761;BME280;47664;51.660;-0.100;2023-03-01T13:05:20;102116.75;;;6.36;53.20
61761;BME280;47664;51.660;-0.100;2023-03-01T13:07:55;102110.91;;;6.34;53.26
61761;BME280;47664;51.660;-0.100;2023-03-01T13:10:31;102107.43;;;6.58;53.56
61761;BME280;47664;51.660;-0.100;2023-03-01T13:13:12;102102.61;;;6.62;52.69
61761;BME280;47664;51.660;-0.100;2023-03-01T13:15:46;102098.54;;;6.59;52.33
61761;BME280;47664;51.660;-0.100;2023-03-01T13:18:33;102097.37;;;6.64;52.15
61761;BME280;47664;51.660;-0.100;2023-03-01T13:21:06;102098.06;;;6.68;52.74
61761;BME280;47664;51.660;-0.100;2023-03-01T13:23:40;102096.24;;;6.61;52.52
61761;BME280;47664;51.660;-0.100;2023-03-01T13:26:16;102091.82;;;7.02;52.05
61761;BME280;47664;51.660;-0.100;2023-03-01T13:28:51;102088.68;;;6.81;52.05